sensor_id;sensor_type;location;lat;lon;timestamp;temperature;humidity
22418;DHT22;11376;50.932;4.442;2022-11-06T00:02:24;12.00;99.90
22418;DHT22;11376;50.932;4.442;2022-11-06T00:04:50;12.00;99.90
22418;DHT22;11376;50.932;4.442;2022-11-06T00:07:15;11.90;99.90
22418;DHT22;11376;50.932;4.442;2022-11-06T00:09:41;11.90;99.90
22418;DHT22;11376;50.932;4.442;2022-11-06T00:12:07;12.00;99.90
22418;DHT22;11376;50.932;4.442;2022-11-06T00:14:32;12.10;99.90
22418;DHT22;11376;50.932;4.442;2022-11-06T00:16:58;12.10;99.90
22418;DHT22;11376;50.932;4.442;2022-11-06T00:19:24;12.20;99.90
22418;DHT22;11376;50.932;4.442;2022-11-06T00:21:50;12.20;99.90
22418;DHT22;11376;50.932;4.442;2022-11-06T00:24:15;12.30;99.90
22418;DHT22;11376;50.932;4.442;2022-11-06T00:26:41;12.30;99.90
22418;DHT22;11376;50.932;4.442;2022-11-06T00:29:09;12.40;99.90
22418;DHT22;11376;50.932;4.442;2022-11-06T00:31:36;12.40;99.90
22418;DHT22;11376;50.932;4.442;2022-11-06T00:34:03;12.40;99.90
22418;DHT22;11376;50.932;4.442;2022-11-06T00:36:31;12.30;99.90
22418;DHT22;11376;50.932;4.442;2022-11-06T00:38:58;12.30;99.90
22418;DHT22;11376;50.932;4.442;2022-11-06T00:41:24;12.40;99.90
22418;DHT22;11376;50.932;4.442;2022-11-06T00:43:52;12.50;99.90
22418;DHT22;11376;50.932;4.442;2022-11-06T00:46:18;12.40;99.90
22418;DHT22;11376;50.932;4.442;2022-11-06T00:48:44;12.40;99.90
22418;DHT22;11376;50.932;4.442;2022-11-06T00:53:35;12.50;99.90
22418;DHT22;11376;50.932;4.442;2022-11-06T00:56:11;12.60;99.90
22418;DHT22;11376;50.932;4.442;2022-11-06T00:58:38;12.60;99.90
22418;DHT22;11376;50.932;4.442;2022-11-06T01:01:08;12.50;99.90
22418;DHT22;11376;50.932;4.442;2022-11-06T01:03:34;12.40;99.90
22418;DHT22;11376;50.932;4.442;2022-11-06T01:06:23;12.40;99.90
22418;DHT22;11376;50.932;4.442;2022-11-06T01:08:49;12.50;99.90
22418;DHT22;11376;50.932;4.442;2022-11-06T01:11:31;12.40;99.90
22418;DHT22;11376;50.932;4.442;2022-11-06T01:13:59;12.50;99.90
22418;DHT22;11376;50.932;4.442;2022-11-06T01:16:25;12.50;99.90
22418;DHT22;11376;50.932;4.442;2022-11-06T01:18:52;12.50;99.90
22418;DHT22;11376;50.932;4.442;2022-11-06T01:21:22;12.60;99.90
22418;DHT22;11376;50.932;4.442;2022-11-06T01:23:53;12.60;99.90
22418;DHT22;11376;50.932;4.442;2022-11-06T01:26:19;12.60;99.90
22418;DHT22;11376;50.932;4.442;2022-11-06T01:28:45;12.70;99.90
22418;DHT22;11376;50.932;4.442;2022-11-06T01:31:13;12.60;99.90
22418;DHT22;11376;50.932;4.442;2022-11-06T01:33:40;12.70;99.90
22418;DHT22;11376;50.932;4.442;2022-11-06T01:36:08;12.60;99.90
22418;DHT22;11376;50.932;4.442;2022-11-06T01:38:33;12.70;99.90
22418;DHT22;11376;50.932;4.442;2022-11-06T01:40:59;12.80;99.90
22418;DHT22;11376;50.932;4.442;2022-11-06T01:46:10;12.70;99.90
22418;DHT22;11376;50.932;4.442;2022-11-06T01:48:38;12.80;99.90
22418;DHT22;11376;50.932;4.442;2022-11-06T01:51:05;12.70;99.90
22418;DHT22;11376;50.932;4.442;2022-11-06T01:53:33;12.70;99.90
22418;DHT22;11376;50.932;4.442;2022-11-06T01:56:01;12.70;99.90
22418;DHT22;11376;50.932;4.442;2022-11-06T01:58:30;12.70;99.90
22418;DHT22;11376;50.932;4.442;2022-11-06T02:00:56;12.60;99.90
22418;DHT22;11376;50.932;4.442;2022-11-06T02:03:22;12.60;99.90
22418;DHT22;11376;50.932;4.442;2022-11-06T02:05:48;12.60;99.90
22418;DHT22;11376;50.932;4.442;2022-11-06T02:08:16;12.60;99.90
22418;DHT22;11376;50.932;4.442;2022-11-06T02:10:42;12.50;99.90
22418;DHT22;11376;50.932;4.442;2022-11-06T02:21:46;12.40;99.90
22418;DHT22;11376;50.932;4.442;2022-11-06T02:27:25;12.40;99.90
22418;DHT22;11376;50.932;4.442;2022-11-06T02:30:11;12.40;99.90
22418;DHT22;11376;50.932;4.442;2022-11-06T02:32:57;12.40;99.90
22418;DHT22;11376;50.932;4.442;2022-11-06T02:35:31;12.40;99.90
22418;DHT22;11376;50.932;4.442;2022-11-06T02:38:03;12.40;99.90
22418;DHT22;11376;50.932;4.442;2022-11-06T02:40:32;12.50;99.90
22418;DHT22;11376;50.932;4.442;2022-11-06T02:43:03;12.50;99.90
22418;DHT22;11376;50.932;4.442;2022-11-06T02:45:31;12.50;99.90
22418;DHT22;11376;50.932;4.442;2022-11-06T02:47:59;12.60;99.90
22418;DHT22;11376;50.932;4.442;2022-11-06T02:50:30;12.50;99.90
22418;DHT22;11376;50.932;4.442;2022-11-06T02:53:03;12.50;99.90
22418;DHT22;11376;50.932;4.442;2022-11-06T02:55:34;12.50;99.90
22418;DHT22;11376;50.932;4.442;2022-11-06T02:58:05;12.50;99.90
22418;DHT22;11376;50.932;4.442;2022-11-06T03:00:34;12.60;99.90
22418;DHT22;11376;50.932;4.442;2022-11-06T03:03:16;12.60;99.90
22418;DHT22;11376;50.932;4.442;2022-11-06T03:06:14;12.70;99.90
22418;DHT22;11376;50.932;4.442;2022-11-06T03:08:50;12.70;99.90
22418;DHT22;11376;50.932;4.442;2022-11-06T03:11:23;12.80;99.90
22418;DHT22;11376;50.932;4.442;2022-11-06T03:22:15;12.70;99.90
22418;DHT22;11376;50.932;4.442;2022-11-06T03:24:58;12.70;99.90
22418;DHT22;11376;50.932;4.442;2022-11-06T03:27:47;12.60;99.90
22418;DHT22;11376;50.932;4.442;2022-11-06T03:30:14;12.60;99.90
22418;DHT22;11376;50.932;4.442;2022-11-06T03:32:59;12.50;99.90
22418;DHT22;11376;50.932;4.442;2022-11-06T03:38:00;12.60;99.90
22418;DHT22;11376;50.932;4.442;2022-11-06T03:40:30;12.50;99.90
22418;DHT22;11376;50.932;4.442;2022-11-06T03:42:59;12.50;99.90
22418;DHT22;11376;50.932;4.442;2022-11-06T03:45:26;12.60;99.90
22418;DHT22;11376;50.932;4.442;2022-11-06T03:48:07;12.60;99.90
22418;DHT22;11376;50.932;4.442;2022-11-06T03:50:43;12.50;99.90
22418;DHT22;11376;50.932;4.442;2022-11-06T03:53:14;12.50;99.90
22418;DHT22;11376;50.932;4.442;2022-11-06T03:55:51;12.50;99.90
22418;DHT22;11376;50.932;4.442;2022-11-06T03:58:22;12.60;99.90
22418;DHT22;11376;50.932;4.442;2022-11-06T04:00:50;12.60;99.90
22418;DHT22;11376;50.932;4.442;2022-11-06T04:03:25;12.50;99.90
22418;DHT22;11376;50.932;4.442;2022-11-06T04:05:55;12.50;99.90
22418;DHT22;11376;50.932;4.442;2022-11-06T04:08:25;12.50;99.90
22418;DHT22;11376;50.932;4.442;2022-11-06T04:11:14;12.50;99.90
22418;DHT22;11376;50.932;4.442;2022-11-06T04:14:02;12.30;99.90
22418;DHT22;11376;50.932;4.442;2022-11-06T04:16:42;12.30;99.90
22418;DHT22;11376;50.932;4.442;2022-11-06T04:19:14;12.40;99.90
22418;DHT22;11376;50.932;4.442;2022-11-06T04:28:02;12.30;99.90
22418;DHT22;11376;50.932;4.442;2022-11-06T04:30:43;12.30;99.90
22418;DHT22;11376;50.932;4.442;2022-11-06T04:33:18;12.20;99.90
22418;DHT22;11376;50.932;4.442;2022-11-06T04:38:52;12.10;99.90
22418;DHT22;11376;50.932;4.442;2022-11-06T04:41:36;12.10;99.90
22418;DHT22;11376;50.932;4.442;2022-11-06T04:46:51;12.10;99.90
22418;DHT22;11376;50.932;4.442;2022-11-06T04:49:19;12.10;99.90
22418;DHT22;11376;50.932;4.442;2022-11-06T04:51:46;12.10;99.90
22418;DHT22;11376;50.932;4.442;2022-11-06T04:54:13;12.10;99.90
22418;DHT22;11376;50.932;4.442;2022-11-06T04:56:39;12.00;99.90
22418;DHT22;11376;50.932;4.442;2022-11-06T04:59:05;12.00;99.90
22418;DHT22;11376;50.932;4.442;2022-11-06T05:01:31;12.10;99.90
22418;DHT22;11376;50.932;4.442;2022-11-06T05:03:57;12.10;99.90
22418;DHT22;11376;50.932;4.442;2022-11-06T05:06:23;12.10;99.90
22418;DHT22;11376;50.932;4.442;2022-11-06T05:08:49;12.00;99.90
22418;DHT22;11376;50.932;4.442;2022-11-06T05:11:14;11.90;99.90
22418;DHT22;11376;50.932;4.442;2022-11-06T05:13:40;11.90;99.90
22418;DHT22;11376;50.932;4.442;2022-11-06T05:16:06;11.90;99.90
22418;DHT22;11376;50.932;4.442;2022-11-06T05:18:32;11.90;99.90
22418;DHT22;11376;50.932;4.442;2022-11-06T05:21:02;11.90;99.90
22418;DHT22;11376;50.932;4.442;2022-11-06T05:23:46;11.80;99.90
22418;DHT22;11376;50.932;4.442;2022-11-06T05:26:12;11.90;99.90
22418;DHT22;11376;50.932;4.442;2022-11-06T05:28:37;12.00;99.90
22418;DHT22;11376;50.932;4.442;2022-11-06T05:31:03;12.10;99.90
22418;DHT22;11376;50.932;4.442;2022-11-06T05:33:29;12.10;99.90
22418;DHT22;11376;50.932;4.442;2022-11-06T05:35:55;12.10;99.90
22418;DHT22;11376;50.932;4.442;2022-11-06T05:38:25;12.10;99.90
22418;DHT22;11376;50.932;4.442;2022-11-06T05:40:50;12.20;99.90
22418;DHT22;11376;50.932;4.442;2022-11-06T05:43:16;12.20;99.90
22418;DHT22;11376;50.932;4.442;2022-11-06T05:45:41;12.30;99.90
22418;DHT22;11376;50.932;4.442;2022-11-06T05:48:07;12.30;99.90
22418;DHT22;11376;50.932;4.442;2022-11-06T05:50:32;12.30;99.90
22418;DHT22;11376;50.932;4.442;2022-11-06T05:52:59;12.30;99.90
22418;DHT22;11376;50.932;4.442;2022-11-06T05:58:09;12.40;99.90
22418;DHT22;11376;50.932;4.442;2022-11-06T06:00:35;12.50;99.90
22418;DHT22;11376;50.932;4.442;2022-11-06T06:03:01;12.40;99.90
22418;DHT22;11376;50.932;4.442;2022-11-06T06:05:27;12.40;99.90
22418;DHT22;11376;50.932;4.442;2022-11-06T06:07:52;12.40;99.90
22418;DHT22;11376;50.932;4.442;2022-11-06T06:10:18;12.40;99.90
22418;DHT22;11376;50.932;4.442;2022-11-06T06:12:43;12.50;99.90
22418;DHT22;11376;50.932;4.442;2022-11-06T06:15:09;12.40;99.90
22418;DHT22;11376;50.932;4.442;2022-11-06T06:17:35;12.60;99.90
22418;DHT22;11376;50.932;4.442;2022-11-06T06:20:01;12.60;99.90
22418;DHT22;11376;50.932;4.442;2022-11-06T06:22:26;12.60;99.90
22418;DHT22;11376;50.932;4.442;2022-11-06T06:24:52;12.70;99.90
22418;DHT22;11376;50.932;4.442;2022-11-06T06:27:17;12.70;99.90
22418;DHT22;11376;50.932;4.442;2022-11-06T06:29:43;12.70;99.90
22418;DHT22;11376;50.932;4.442;2022-11-06T06:32:09;12.70;99.90
22418;DHT22;11376;50.932;4.442;2022-11-06T06:34:34;12.70;99.90
22418;DHT22;11376;50.932;4.442;2022-11-06T06:37:01;12.80;99.90
22418;DHT22;11376;50.932;4.442;2022-11-06T06:39:26;12.80;99.90
22418;DHT22;11376;50.932;4.442;2022-11-06T06:41:52;12.90;99.90
22418;DHT22;11376;50.932;4.442;2022-11-06T06:44:17;13.00;99.90
22418;DHT22;11376;50.932;4.442;2022-11-06T06:46:43;12.80;99.90
22418;DHT22;11376;50.932;4.442;2022-11-06T06:49:08;12.80;99.90
22418;DHT22;11376;50.932;4.442;2022-11-06T06:51:34;12.90;99.90
22418;DHT22;11376;50.932;4.442;2022-11-06T06:53:59;12.90;99.90
22418;DHT22;11376;50.932;4.442;2022-11-06T06:56:25;13.00;99.90
22418;DHT22;11376;50.932;4.442;2022-11-06T06:58:54;13.10;99.90
22418;DHT22;11376;50.932;4.442;2022-11-06T07:01:21;13.10;99.90
22418;DHT22;11376;50.932;4.442;2022-11-06T07:03:47;13.10;99.90
22418;DHT22;11376;50.932;4.442;2022-11-06T07:06:12;13.20;99.90
22418;DHT22;11376;50.932;4.442;2022-11-06T07:08:38;13.20;99.90
22418;DHT22;11376;50.932;4.442;2022-11-06T07:11:08;13.30;99.90
22418;DHT22;11376;50.932;4.442;2022-11-06T07:13:34;13.20;99.90
22418;DHT22;11376;50.932;4.442;2022-11-06T07:16:07;13.30;99.90
22418;DHT22;11376;50.932;4.442;2022-11-06T07:18:34;13.20;99.90
22418;DHT22;11376;50.932;4.442;2022-11-06T07:21:03;13.20;99.90
22418;DHT22;11376;50.932;4.442;2022-11-06T07:23:29;13.30;99.90
22418;DHT22;11376;50.932;4.442;2022-11-06T07:25:54;13.20;99.90
22418;DHT22;11376;50.932;4.442;2022-11-06T07:28:20;13.30;99.90
22418;DHT22;11376;50.932;4.442;2022-11-06T07:30:45;13.30;99.90
22418;DHT22;11376;50.932;4.442;2022-11-06T07:33:11;13.40;99.90
22418;DHT22;11376;50.932;4.442;2022-11-06T07:35:37;13.50;99.90
22418;DHT22;11376;50.932;4.442;2022-11-06T07:38:04;13.60;99.90
22418;DHT22;11376;50.932;4.442;2022-11-06T07:40:31;13.70;99.90
22418;DHT22;11376;50.932;4.442;2022-11-06T07:43:05;13.80;99.90
22418;DHT22;11376;50.932;4.442;2022-11-06T07:45:30;13.80;99.90
22418;DHT22;11376;50.932;4.442;2022-11-06T07:47:56;13.90;99.90
22418;DHT22;11376;50.932;4.442;2022-11-06T07:50:22;13.90;99.90
22418;DHT22;11376;50.932;4.442;2022-11-06T07:52:47;13.90;99.90
22418;DHT22;11376;50.932;4.442;2022-11-06T07:55:13;13.90;99.90
22418;DHT22;11376;50.932;4.442;2022-11-06T07:57:39;14.10;99.90
22418;DHT22;11376;50.932;4.442;2022-11-06T08:00:05;14.20;99.90
22418;DHT22;11376;50.932;4.442;2022-11-06T08:02:31;14.20;99.90
22418;DHT22;11376;50.932;4.442;2022-11-06T08:04:56;14.30;99.90
22418;DHT22;11376;50.932;4.442;2022-11-06T08:07:22;14.30;99.90
22418;DHT22;11376;50.932;4.442;2022-11-06T08:09:48;14.40;99.90
22418;DHT22;11376;50.932;4.442;2022-11-06T08:12:13;14.40;99.90
22418;DHT22;11376;50.932;4.442;2022-11-06T08:14:39;14.40;99.90
22418;DHT22;11376;50.932;4.442;2022-11-06T08:17:05;14.60;99.90
22418;DHT22;11376;50.932;4.442;2022-11-06T08:19:31;14.70;99.90
22418;DHT22;11376;50.932;4.442;2022-11-06T08:21:56;14.80;99.90
22418;DHT22;11376;50.932;4.442;2022-11-06T08:24:22;14.90;99.90
22418;DHT22;11376;50.932;4.442;2022-11-06T08:26:48;14.90;99.90
22418;DHT22;11376;50.932;4.442;2022-11-06T08:29:13;14.80;99.90
22418;DHT22;11376;50.932;4.442;2022-11-06T08:31:39;14.80;99.90
22418;DHT22;11376;50.932;4.442;2022-11-06T08:34:05;14.80;99.90
22418;DHT22;11376;50.932;4.442;2022-11-06T08:36:34;14.90;99.90
22418;DHT22;11376;50.932;4.442;2022-11-06T08:39:00;14.90;99.90
22418;DHT22;11376;50.932;4.442;2022-11-06T08:41:25;14.80;99.90
22418;DHT22;11376;50.932;4.442;2022-11-06T08:43:51;14.90;99.90
22418;DHT22;11376;50.932;4.442;2022-11-06T08:46:17;14.80;99.90
22418;DHT22;11376;50.932;4.442;2022-11-06T08:48:42;14.80;99.90
22418;DHT22;11376;50.932;4.442;2022-11-06T08:51:08;14.80;99.90
22418;DHT22;11376;50.932;4.442;2022-11-06T08:53:33;14.80;99.90
22418;DHT22;11376;50.932;4.442;2022-11-06T08:56:02;14.70;99.90
22418;DHT22;11376;50.932;4.442;2022-11-06T08:58:27;14.70;99.90
22418;DHT22;11376;50.932;4.442;2022-11-06T09:00:53;14.60;99.90
22418;DHT22;11376;50.932;4.442;2022-11-06T09:03:18;14.70;99.90
22418;DHT22;11376;50.932;4.442;2022-11-06T09:05:44;14.70;99.90
22418;DHT22;11376;50.932;4.442;2022-11-06T09:08:10;14.70;99.90
22418;DHT22;11376;50.932;4.442;2022-11-06T09:10:37;14.60;99.90
22418;DHT22;11376;50.932;4.442;2022-11-06T09:13:04;14.50;99.90
22418;DHT22;11376;50.932;4.442;2022-11-06T09:15:30;14.50;99.90
22418;DHT22;11376;50.932;4.442;2022-11-06T09:17:55;14.50;99.90
22418;DHT22;11376;50.932;4.442;2022-11-06T09:20:23;14.60;99.90
22418;DHT22;11376;50.932;4.442;2022-11-06T09:22:49;14.60;99.90
22418;DHT22;11376;50.932;4.442;2022-11-06T09:25:15;14.70;99.90
22418;DHT22;11376;50.932;4.442;2022-11-06T09:30:08;14.90;99.90
22418;DHT22;11376;50.932;4.442;2022-11-06T09:32:33;14.90;99.90
22418;DHT22;11376;50.932;4.442;2022-11-06T09:34:59;14.90;99.90
22418;DHT22;11376;50.932;4.442;2022-11-06T09:37:25;14.90;99.90
22418;DHT22;11376;50.932;4.442;2022-11-06T09:39:50;14.80;99.90
22418;DHT22;11376;50.932;4.442;2022-11-06T09:45:33;15.40;99.90
22418;DHT22;11376;50.932;4.442;2022-11-06T09:48:31;15.50;99.90
22418;DHT22;11376;50.932;4.442;2022-11-06T09:51:25;15.90;99.90
22418;DHT22;11376;50.932;4.442;2022-11-06T09:53:53;16.10;99.90
22418;DHT22;11376;50.932;4.442;2022-11-06T09:56:20;16.30;99.90
22418;DHT22;11376;50.932;4.442;2022-11-06T09:58:50;16.10;99.90
22418;DHT22;11376;50.932;4.442;2022-11-06T10:01:19;16.10;99.90
22418;DHT22;11376;50.932;4.442;2022-11-06T10:03:50;16.00;99.90
22418;DHT22;11376;50.932;4.442;2022-11-06T10:06:20;15.90;99.90
22418;DHT22;11376;50.932;4.442;2022-11-06T10:08:46;15.80;99.90
22418;DHT22;11376;50.932;4.442;2022-11-06T10:16:35;15.70;99.90
22418;DHT22;11376;50.932;4.442;2022-11-06T10:19:23;15.70;99.90
22418;DHT22;11376;50.932;4.442;2022-11-06T10:22:27;15.60;99.90
22418;DHT22;11376;50.932;4.442;2022-11-06T10:25:02;15.60;99.90
22418;DHT22;11376;50.932;4.442;2022-11-06T10:27:45;15.50;99.90
22418;DHT22;11376;50.932;4.442;2022-11-06T10:30:16;15.30;99.90
22418;DHT22;11376;50.932;4.442;2022-11-06T10:35:41;14.90;99.90
22418;DHT22;11376;50.932;4.442;2022-11-06T10:38:27;14.80;99.90
22418;DHT22;11376;50.932;4.442;2022-11-06T10:40:54;14.70;99.90
22418;DHT22;11376;50.932;4.442;2022-11-06T10:43:29;14.80;99.90
22418;DHT22;11376;50.932;4.442;2022-11-06T10:48:47;14.90;99.90
22418;DHT22;11376;50.932;4.442;2022-11-06T10:54:47;14.80;99.90
22418;DHT22;11376;50.932;4.442;2022-11-06T10:57:45;14.90;99.90
22418;DHT22;11376;50.932;4.442;2022-11-06T11:00:14;15.10;99.90
22418;DHT22;11376;50.932;4.442;2022-11-06T11:02:54;15.10;99.90
22418;DHT22;11376;50.932;4.442;2022-11-06T11:05:22;15.20;99.90
22418;DHT22;11376;50.932;4.442;2022-11-06T11:07:49;15.20;99.90
22418;DHT22;11376;50.932;4.442;2022-11-06T11:10:28;15.10;99.90
22418;DHT22;11376;50.932;4.442;2022-11-06T11:12:57;15.00;99.90
22418;DHT22;11376;50.932;4.442;2022-11-06T11:15:46;15.10;99.90
22418;DHT22;11376;50.932;4.442;2022-11-06T11:20:42;15.10;99.90
22418;DHT22;11376;50.932;4.442;2022-11-06T11:23:19;15.10;99.90
22418;DHT22;11376;50.932;4.442;2022-11-06T11:25:49;15.10;99.90
22418;DHT22;11376;50.932;4.442;2022-11-06T11:28:35;15.00;99.90
22418;DHT22;11376;50.932;4.442;2022-11-06T11:31:13;14.90;99.90
22418;DHT22;11376;50.932;4.442;2022-11-06T11:33:46;14.90;99.90
22418;DHT22;11376;50.932;4.442;2022-11-06T11:36:12;15.00;99.90
22418;DHT22;11376;50.932;4.442;2022-11-06T11:38:39;14.90;99.90
22418;DHT22;11376;50.932;4.442;2022-11-06T11:41:07;14.90;99.90
22418;DHT22;11376;50.932;4.442;2022-11-06T11:43:33;14.70;99.90
22418;DHT22;11376;50.932;4.442;2022-11-06T11:59:25;14.50;99.90
22418;DHT22;11376;50.932;4.442;2022-11-06T12:01:52;14.50;99.90
22418;DHT22;11376;50.932;4.442;2022-11-06T12:04:30;14.40;99.90
22418;DHT22;11376;50.932;4.442;2022-11-06T12:07:00;14.40;99.90
22418;DHT22;11376;50.932;4.442;2022-11-06T12:09:28;14.40;99.90
22418;DHT22;11376;50.932;4.442;2022-11-06T12:11:55;14.30;99.90
22418;DHT22;11376;50.932;4.442;2022-11-06T12:14:29;14.10;99.90
22418;DHT22;11376;50.932;4.442;2022-11-06T12:19:36;13.80;99.90
22418;DHT22;11376;50.932;4.442;2022-11-06T12:22:09;13.70;99.90
22418;DHT22;11376;50.932;4.442;2022-11-06T12:27:14;13.30;99.90
22418;DHT22;11376;50.932;4.442;2022-11-06T12:29:54;13.10;99.90
22418;DHT22;11376;50.932;4.442;2022-11-06T12:38:31;12.50;99.90
22418;DHT22;11376;50.932;4.442;2022-11-06T12:41:12;12.40;99.90
22418;DHT22;11376;50.932;4.442;2022-11-06T12:43:42;12.30;99.90
22418;DHT22;11376;50.932;4.442;2022-11-06T12:46:39;12.30;99.90
22418;DHT22;11376;50.932;4.442;2022-11-06T12:49:41;12.20;99.90
22418;DHT22;11376;50.932;4.442;2022-11-06T12:53:32;12.10;99.90
22418;DHT22;11376;50.932;4.442;2022-11-06T12:55:58;12.00;99.90
22418;DHT22;11376;50.932;4.442;2022-11-06T12:59:00;11.90;99.90
22418;DHT22;11376;50.932;4.442;2022-11-06T13:06:55;11.80;99.90
22418;DHT22;11376;50.932;4.442;2022-11-06T13:09:34;11.90;99.90
22418;DHT22;11376;50.932;4.442;2022-11-06T13:12:14;11.70;99.90
22418;DHT22;11376;50.932;4.442;2022-11-06T13:15:30;11.60;99.90
22418;DHT22;11376;50.932;4.442;2022-11-06T13:17:56;11.50;99.90
22418;DHT22;11376;50.932;4.442;2022-11-06T13:23:32;11.50;99.90
22418;DHT22;11376;50.932;4.442;2022-11-06T13:28:41;11.20;99.90
22418;DHT22;11376;50.932;4.442;2022-11-06T13:31:11;11.10;99.90
22418;DHT22;11376;50.932;4.442;2022-11-06T13:33:42;11.00;99.90
22418;DHT22;11376;50.932;4.442;2022-11-06T13:36:08;11.00;99.90
22418;DHT22;11376;50.932;4.442;2022-11-06T13:38:37;10.90;99.90
22418;DHT22;11376;50.932;4.442;2022-11-06T13:41:40;10.90;99.90
22418;DHT22;11376;50.932;4.442;2022-11-06T13:44:04;10.90;99.90
22418;DHT22;11376;50.932;4.442;2022-11-06T13:46:51;11.00;99.90
22418;DHT22;11376;50.932;4.442;2022-11-06T13:52:19;11.00;99.90
22418;DHT22;11376;50.932;4.442;2022-11-06T14:00:35;10.80;99.90
22418;DHT22;11376;50.932;4.442;2022-11-06T14:03:24;10.70;99.90
22418;DHT22;11376;50.932;4.442;2022-11-06T14:05:54;10.70;99.90
22418;DHT22;11376;50.932;4.442;2022-11-06T14:10:55;10.60;99.90
22418;DHT22;11376;50.932;4.442;2022-11-06T14:13:24;10.70;99.90
22418;DHT22;11376;50.932;4.442;2022-11-06T14:15:58;10.70;99.90
22418;DHT22;11376;50.932;4.442;2022-11-06T14:18:24;10.50;99.90
22418;DHT22;11376;50.932;4.442;2022-11-06T14:26:42;10.40;99.90
22418;DHT22;11376;50.932;4.442;2022-11-06T14:34:34;10.40;99.90
22418;DHT22;11376;50.932;4.442;2022-11-06T14:42:44;10.40;99.90
22418;DHT22;11376;50.932;4.442;2022-11-06T14:45:15;10.40;99.90
22418;DHT22;11376;50.932;4.442;2022-11-06T14:50:38;10.30;99.90
22418;DHT22;11376;50.932;4.442;2022-11-06T14:53:23;10.30;99.90
22418;DHT22;11376;50.932;4.442;2022-11-06T14:56:04;10.30;99.90
22418;DHT22;11376;50.932;4.442;2022-11-06T14:58:36;10.30;99.90
22418;DHT22;11376;50.932;4.442;2022-11-06T15:19:06;10.00;99.90
22418;DHT22;11376;50.932;4.442;2022-11-06T15:21:42;10.00;99.90
22418;DHT22;11376;50.932;4.442;2022-11-06T15:24:16;10.00;99.90
22418;DHT22;11376;50.932;4.442;2022-11-06T15:26:50;9.90;99.90
22418;DHT22;11376;50.932;4.442;2022-11-06T15:31:46;9.90;99.90
22418;DHT22;11376;50.932;4.442;2022-11-06T15:34:22;9.90;99.90
22418;DHT22;11376;50.932;4.442;2022-11-06T15:36:55;9.90;99.90
22418;DHT22;11376;50.932;4.442;2022-11-06T15:41:53;9.80;99.90
22418;DHT22;11376;50.932;4.442;2022-11-06T15:44:20;9.80;99.90
22418;DHT22;11376;50.932;4.442;2022-11-06T15:46:57;9.80;99.90
22418;DHT22;11376;50.932;4.442;2022-11-06T15:49:24;9.70;99.90
22418;DHT22;11376;50.932;4.442;2022-11-06T15:52:01;9.60;99.90
22418;DHT22;11376;50.932;4.442;2022-11-06T15:54:39;9.50;99.90
22418;DHT22;11376;50.932;4.442;2022-11-06T15:59:43;9.70;99.90
22418;DHT22;11376;50.932;4.442;2022-11-06T16:02:15;9.80;99.90
22418;DHT22;11376;50.932;4.442;2022-11-06T16:04:41;9.70;99.90
22418;DHT22;11376;50.932;4.442;2022-11-06T16:07:07;9.70;99.90
22418;DHT22;11376;50.932;4.442;2022-11-06T16:09:33;9.70;99.90
22418;DHT22;11376;50.932;4.442;2022-11-06T16:11:59;9.70;99.90
22418;DHT22;11376;50.932;4.442;2022-11-06T16:14:25;9.80;99.90
22418;DHT22;11376;50.932;4.442;2022-11-06T16:16:53;9.80;99.90
22418;DHT22;11376;50.932;4.442;2022-11-06T16:19:32;9.80;99.90
22418;DHT22;11376;50.932;4.442;2022-11-06T16:22:10;9.80;99.90
22418;DHT22;11376;50.932;4.442;2022-11-06T16:24:46;9.70;99.90
22418;DHT22;11376;50.932;4.442;2022-11-06T16:27:14;9.80;99.90
22418;DHT22;11376;50.932;4.442;2022-11-06T16:29:48;9.70;99.90
22418;DHT22;11376;50.932;4.442;2022-11-06T16:32:27;9.70;99.90
22418;DHT22;11376;50.932;4.442;2022-11-06T16:34:54;9.70;99.90
22418;DHT22;11376;50.932;4.442;2022-11-06T16:39:56;9.70;99.90
22418;DHT22;11376;50.932;4.442;2022-11-06T16:42:31;9.60;99.90
22418;DHT22;11376;50.932;4.442;2022-11-06T16:47:42;9.70;99.90
22418;DHT22;11376;50.932;4.442;2022-11-06T16:50:48;9.70;99.90
22418;DHT22;11376;50.932;4.442;2022-11-06T16:53:21;9.80;99.90
22418;DHT22;11376;50.932;4.442;2022-11-06T16:56:05;9.80;99.90
22418;DHT22;11376;50.932;4.442;2022-11-06T16:58:45;9.90;99.90
22418;DHT22;11376;50.932;4.442;2022-11-06T17:01:12;10.00;99.90
22418;DHT22;11376;50.932;4.442;2022-11-06T17:03:58;10.00;99.90
22418;DHT22;11376;50.932;4.442;2022-11-06T17:06:33;10.00;99.90
22418;DHT22;11376;50.932;4.442;2022-11-06T17:09:46;10.00;99.90
22418;DHT22;11376;50.932;4.442;2022-11-06T17:11:50;10.10;99.90
22418;DHT22;11376;50.932;4.442;2022-11-06T17:14:18;10.10;99.90
22418;DHT22;11376;50.932;4.442;2022-11-06T17:16:55;10.10;99.90
22418;DHT22;11376;50.932;4.442;2022-11-06T17:19:22;10.10;99.90
22418;DHT22;11376;50.932;4.442;2022-11-06T17:21:48;10.10;99.90
22418;DHT22;11376;50.932;4.442;2022-11-06T17:24:14;10.20;99.90
22418;DHT22;11376;50.932;4.442;2022-11-06T17:26:47;10.30;99.90
22418;DHT22;11376;50.932;4.442;2022-11-06T17:29:13;10.40;99.90
22418;DHT22;11376;50.932;4.442;2022-11-06T17:31:39;10.50;99.90
22418;DHT22;11376;50.932;4.442;2022-11-06T17:34:04;10.50;99.90
22418;DHT22;11376;50.932;4.442;2022-11-06T17:36:31;10.60;99.90
22418;DHT22;11376;50.932;4.442;2022-11-06T17:38:57;10.60;99.90
22418;DHT22;11376;50.932;4.442;2022-11-06T17:41:24;10.70;99.90
22418;DHT22;11376;50.932;4.442;2022-11-06T17:44:07;10.80;99.90
22418;DHT22;11376;50.932;4.442;2022-11-06T17:46:38;10.70;99.90
22418;DHT22;11376;50.932;4.442;2022-11-06T17:49:04;10.80;99.90
22418;DHT22;11376;50.932;4.442;2022-11-06T17:51:30;10.70;99.90
22418;DHT22;11376;50.932;4.442;2022-11-06T17:54:25;10.80;99.90
22418;DHT22;11376;50.932;4.442;2022-11-06T17:56:52;10.80;99.90
22418;DHT22;11376;50.932;4.442;2022-11-06T17:59:19;10.80;99.90
22418;DHT22;11376;50.932;4.442;2022-11-06T18:01:45;10.80;99.90
22418;DHT22;11376;50.932;4.442;2022-11-06T18:04:14;10.80;99.90
22418;DHT22;11376;50.932;4.442;2022-11-06T18:06:43;10.90;99.90
22418;DHT22;11376;50.932;4.442;2022-11-06T18:09:09;10.90;99.90
22418;DHT22;11376;50.932;4.442;2022-11-06T18:11:35;10.90;99.90
22418;DHT22;11376;50.932;4.442;2022-11-06T18:14:01;11.00;99.90
22418;DHT22;11376;50.932;4.442;2022-11-06T18:16:29;11.00;99.90
22418;DHT22;11376;50.932;4.442;2022-11-06T18:18:56;11.10;99.90
22418;DHT22;11376;50.932;4.442;2022-11-06T18:21:22;11.00;99.90
22418;DHT22;11376;50.932;4.442;2022-11-06T18:23:48;11.10;99.90
22418;DHT22;11376;50.932;4.442;2022-11-06T18:26:15;11.10;99.90
22418;DHT22;11376;50.932;4.442;2022-11-06T18:28:40;11.10;99.90
22418;DHT22;11376;50.932;4.442;2022-11-06T18:31:09;11.10;99.90
22418;DHT22;11376;50.932;4.442;2022-11-06T18:33:36;11.20;99.90
22418;DHT22;11376;50.932;4.442;2022-11-06T18:36:07;11.30;99.90
22418;DHT22;11376;50.932;4.442;2022-11-06T18:38:34;11.40;99.90